aviador You're here:

KENW Decoded Metar

KENOSHA in WI, USA
Report Time2017-08-19 10:53:00
UTC Time2017-08-19 11:14:51
Flight Rules vfr VFR
Wind320° at 05 kt
W.Decomp.*RWY 33: 5.0 kt HW 0.7 kt LCW
RWY 25: 1.5 kt HW 4.8 kt RCW
W.Rank320° ranks 18
Current wind is below 320° avg. (7.1)
Visibility9999 m
Phenomena:N/A
Clouds:N/A
Expected CloudBase > 800 ft AGL from Temp-Dew spread
CeilingNone
Temp17°C (ISA +3)
Dew Point15°C (88% RH)
AAT16.8°C
QNH1013 hPa
Density Alt1,352 ft
Elevation719 ft
Report Wrong Elevation
Raw Report
METAR KENW 191053Z AUTO 32005KT 10SM CLR 17/15 A2992 RMK AO2 SLP129
T01670150=

Extra information for KENW:More info

Metar Taf Metar & Taf Last 4 Metars F.Rules Stats Wind Profile Meteogram Temp Stats Airport Information Weather charts Add Link Nearby VenuesMetar ALERT Operation Metar Decoded Social comments

AIRNAV info for KENW